createdAt,value
2017-09-13T00:07:10.399Z,53
2017-09-13T00:17:20.635Z,52
2017-09-13T00:27:34.506Z,53
2017-09-13T00:37:48.573Z,57.8
2017-09-13T00:48:03.557Z,62.3
2017-09-13T00:58:17.729Z,64.6
2017-09-13T01:08:32.286Z,66.2
2017-09-13T01:18:45.516Z,65.2
2017-09-13T01:28:59.367Z,65.1
2017-09-13T01:39:14.461Z,66.9
2017-09-13T01:49:28.651Z,69
2017-09-13T01:59:42.162Z,65
2017-09-13T02:09:56.646Z,48.9
2017-09-13T02:20:09.890Z,34.1
2017-09-13T02:30:20.112Z,26.6
2017-09-13T02:40:34.347Z,21.3
2017-09-13T02:50:48.818Z,18.6
2017-09-13T03:01:03.833Z,14.5
2017-09-13T03:11:17.984Z,13.7
2017-09-13T03:21:32.106Z,12.2
2017-09-13T03:31:47.256Z,11.2
2017-09-13T03:42:01.205Z,10.4
2017-09-13T03:52:15.199Z,10
2017-09-13T04:02:30.041Z,9.2
2017-09-13T04:12:43.885Z,8.8
2017-09-13T04:22:58.920Z,8.8
2017-09-13T04:33:13.236Z,8.7
2017-09-13T04:43:23.473Z,8.4
2017-09-13T04:53:36.595Z,8.3
2017-09-13T05:03:49.812Z,8.3
2017-09-13T05:14:04.278Z,8.2
2017-09-13T05:24:18.833Z,8
2017-09-13T05:34:32.998Z,8.2
2017-09-13T05:44:46.480Z,7.9
2017-09-13T05:55:01.332Z,8
2017-09-13T06:05:14.605Z,8
2017-09-13T06:15:28.413Z,8
2017-09-13T06:25:42.041Z,8.4
2017-09-13T06:46:10.400Z,8.3
2017-09-13T06:56:20.623Z,8.6
2017-09-13T07:06:35.026Z,11.1
2017-09-13T07:16:49.716Z,16.6
2017-09-13T07:27:03.651Z,34.6
2017-09-13T07:37:16.885Z,39.4
2017-09-13T07:47:29.733Z,47.4
2017-09-13T07:57:43.562Z,50.7
2017-09-13T08:07:57.124Z,57.3
2017-09-13T08:18:11.993Z,68.3
2017-09-13T08:28:25.209Z,75.5
2017-09-13T08:38:39.383Z,82
2017-09-13T08:48:53.521Z,84.4
2017-09-13T08:59:06.794Z,86
2017-09-13T09:09:17.104Z,88
2017-09-13T09:19:31.881Z,79.4
2017-09-13T09:29:46.139Z,53.6
2017-09-13T09:40:00.140Z,31.5
2017-09-13T09:50:15.292Z,58.9
2017-09-13T10:00:29.081Z,48.2
2017-09-13T10:10:42.378Z,66.7
2017-09-13T10:20:56.138Z,93.3
2017-09-13T10:31:11.121Z,91.5
2017-09-13T10:41:25.759Z,88.8
2017-09-13T10:51:39.438Z,86.5
2017-09-13T11:01:54.484Z,85.7
2017-09-13T11:12:07.762Z,85
2017-09-13T11:22:18.139Z,83.7
2017-09-13T11:32:32.202Z,84.9
2017-09-13T11:42:45.812Z,83.3
2017-09-13T11:52:59.694Z,83.9
2017-09-13T12:03:14.768Z,83.6
2017-09-13T12:13:28.904Z,84
2017-09-13T12:23:43.552Z,80.8
2017-09-13T12:33:58.250Z,80
2017-09-13T12:44:12.970Z,79.4
2017-09-13T12:54:27.958Z,79.2
2017-09-13T13:04:42.817Z,79.3
2017-09-13T13:14:57.065Z,78.4
2017-09-13T13:25:11.387Z,77.9
2017-09-13T13:35:25.885Z,79.1
2017-09-13T13:45:36.237Z,79.5
2017-09-13T13:55:50.385Z,79.1
2017-09-13T14:06:04.560Z,77.3
2017-09-13T14:16:19.509Z,78.1
2017-09-13T14:26:32.821Z,79.3
2017-09-13T14:36:46.304Z,79.2
2017-09-13T14:47:01.309Z,79.2
2017-09-13T14:57:16.421Z,78.5
2017-09-13T15:07:30.970Z,79
2017-09-13T15:17:44.785Z,78
2017-09-13T15:27:58.842Z,79.1
2017-09-13T15:38:13.733Z,79.6
2017-09-13T15:48:28.092Z,80.8
2017-09-13T15:58:38.368Z,80.8
2017-09-13T16:08:52.098Z,81.2
2017-09-13T16:19:05.290Z,82.5
2017-09-13T16:29:19.941Z,83
2017-09-13T16:39:33.730Z,84.2
2017-09-13T16:49:47.041Z,85.1
2017-09-13T17:00:01.143Z,85.7
2017-09-13T17:10:14.717Z,84.7
2017-09-13T17:20:27.973Z,84.5
2017-09-13T17:30:41.961Z,85.3
2017-09-13T17:40:55.889Z,86.4
2017-09-13T17:51:10.186Z,85.2
2017-09-13T18:01:24.139Z,76.1
2017-09-13T18:11:34.379Z,54.5
2017-09-13T18:21:47.510Z,49
2017-09-13T18:32:02.133Z,37.2
2017-09-13T18:42:15.932Z,24.4
2017-09-13T18:52:30.268Z,21.2
2017-09-13T19:02:44.989Z,18.3
2017-09-13T19:12:59.457Z,15.2
2017-09-13T19:23:13.720Z,11.7
2017-09-13T19:33:27.664Z,11.6
2017-09-13T19:43:42.076Z,15.2
2017-09-13T19:53:56.208Z,16.5
2017-09-13T20:04:10.335Z,15.6
2017-09-13T20:14:23.507Z,16.8
2017-09-13T20:24:33.755Z,17.7
2017-09-13T20:34:48.587Z,19.6
2017-09-13T20:45:01.733Z,19.7
2017-09-13T20:55:15.343Z,16.6
2017-09-13T21:05:30.169Z,16.6
2017-09-13T21:15:44.686Z,15.2
2017-09-13T21:25:58.920Z,14.1
2017-09-13T21:36:13.867Z,14.2
2017-09-13T21:46:28.060Z,14.4
2017-09-13T21:56:41.751Z,16.9
2017-09-13T22:06:55.672Z,20.5
2017-09-13T22:17:09.107Z,20.5
2017-09-13T22:27:23.137Z,19.6
2017-09-13T22:37:33.374Z,19.4
2017-09-13T22:47:48.253Z,16.6
2017-09-13T22:58:02.855Z,14.3
2017-09-13T23:08:17.885Z,12.7
2017-09-13T23:18:31.943Z,12.4
2017-09-13T23:28:46.058Z,12
2017-09-13T23:38:59.211Z,12.1
2017-09-13T23:49:13.702Z,11.2
2017-09-13T23:59:28.357Z,10.7
